Bolivar, Texas
Current Conditions -  °F | °C
As of 6:52 AM on Wednesday 22 Oct 2014 (Local Time) from KGLS Reporting Station
Few Clouds Few Clouds  
Wind Chill: 71°   Ceiling: Unl
Heat Index: 71°   Visibility: 10mi
Dew Point: 68°   Wind: 10mph
Humidity: 90%   Direction: 30°NNE
Pressure: 30.04"   Gusts: NA
Location:  29.4387°N, 94.6622°W
Report Text: KGLS 221152Z 03009KT 10SM FEW026 22/20 A3004 RMK AO2 SLP171 T02170200 10222 20211 53009
Loading
Personal Weather Stations






























Interactive Weather Map
Tropical Storm Tracking
New forecast layout! Learn more

10-Day Weather Forecast

Advertisements
Track Severe Weather on mobile